Overview Statistics Trail Chart Weather Telemetry Raw packets
 

This is the latest recevied weather packets stored in our database for station/object EA4HRG-10. If no packets are shown the sender has not sent any weather packets the latest 10 day(s).

<< 1 2 3 4 >>
Time Temp. Humidity Pressure Rain* Wind** Luminosity Snow
1788617440 36.11° C 20% 1015.2 hPa - - - -
1788616540 37.22° C 18% 1014.8 hPa - - - -
1788615668 37.78° C 19% 1014.9 hPa - - - -
1788614740 38.33° C 19% 1014.9 hPa - - - -
1788613840 38.33° C 18% 1015 hPa - - - -
1788612940 37.22° C 19% 1015.2 hPa - - - -
1788612047 36.67° C 20% 1015.6 hPa - - - -
1788611140 36.67° C 20% 1015.8 hPa - - - -
1788610240 36.11° C 21% 1015.9 hPa - - - -
1788609340 35° C 22% 1016.5 hPa - - - -
1788608440 35.56° C 22% 1016.6 hPa - - - -
1788607540 35.56° C 23% 1016.8 hPa - - - -
1788606640 35° C 24% 1017 hPa - - - -
1788605740 34.44° C 25% 1017.3 hPa - - - -
1788604840 33.89° C 25% 1017.6 hPa - - - -
1788603940 33.33° C 26% 1018 hPa - - - -
1788603049 32.78° C 19% 1018.1 hPa - - - -
1788602140 32.78° C 19% 1018.1 hPa - - - -
1788601240 33.89° C 19% 1017.6 hPa - - - -
1788600340 34.44° C 20% 1017.5 hPa - - - -
1788599440 32.22° C 21% 1018.4 hPa - - - -
1788598540 30° C 24% 1019 hPa - - - -
1788597640 28.33° C 27% 1019.7 hPa - - - -
1788596740 23.89° C 38% 1021.3 hPa - - - -
1788595840 22.22° C 42% 1022.1 hPa - - - -

* Rain since midnight (hover to see other rain measurements)
** Current wind speed in m/s (hover to see current wind gust speed)